createdAt,value
2023-05-10T00:00:24.768Z,98561.72
2023-05-10T00:05:29.057Z,98560.72
2023-05-10T00:10:34.615Z,98557.13
2023-05-10T00:15:38.975Z,98540.13
2023-05-10T00:20:43.267Z,98549.16
2023-05-10T00:25:48.998Z,98541.31
2023-05-10T00:30:53.034Z,98553.81
2023-05-10T00:35:57.059Z,98547.78
2023-05-10T00:41:02.914Z,98542.22
2023-05-10T00:46:09.677Z,98534.22
2023-05-10T00:51:14.259Z,98545.34
2023-05-10T00:56:21.776Z,98536.50
2023-05-10T01:01:26.169Z,98537.50
2023-05-10T01:06:30.285Z,98534.56
2023-05-10T01:11:36.854Z,98527.38
2023-05-10T01:16:42.335Z,98527.72
2023-05-10T01:21:51.921Z,98519.84
2023-05-10T01:27:19.496Z,98519.38
2023-05-10T01:32:32.723Z,98524.19
2023-05-10T01:37:43.633Z,98516.22
2023-05-10T01:42:51.946Z,98518.19
2023-05-10T01:48:04.780Z,98515.59
2023-05-10T01:53:12.195Z,98506.06
2023-05-10T01:58:19.163Z,98511.03
2023-05-10T02:03:26.110Z,98505.16
2023-05-10T02:08:31.027Z,98506.00
2023-05-10T02:13:36.689Z,98504.13
2023-05-10T02:18:43.087Z,98497.06
2023-05-10T02:23:47.618Z,98486.00
2023-05-10T02:28:51.961Z,98485.63
2023-05-10T02:33:59.120Z,98499.00
2023-05-10T02:39:03.785Z,98488.09
2023-05-10T02:44:09.231Z,98490.13
2023-05-10T02:49:15.039Z,98477.63
2023-05-10T02:54:21.756Z,98485.13
2023-05-10T02:59:26.568Z,98482.09
2023-05-10T03:04:32.518Z,98485.78
2023-05-10T03:09:36.902Z,98481.28
2023-05-10T03:14:51.219Z,98481.56
2023-05-10T03:19:57.600Z,98478.03
2023-05-10T03:25:06.613Z,98476.97
2023-05-10T03:30:14.444Z,98480.47
2023-05-10T03:35:20.585Z,98468.50
2023-05-10T03:40:25.088Z,98475.84
2023-05-10T03:45:29.577Z,98474.34
2023-05-10T03:50:35.433Z,98475.28
2023-05-10T03:55:40.678Z,98477.59
2023-05-10T04:00:46.484Z,98472.81
2023-05-10T04:06:00.656Z,98466.28
2023-05-10T04:11:09.364Z,98467.75
2023-05-10T04:16:13.377Z,98469.19
2023-05-10T04:21:18.542Z,98468.63
2023-05-10T04:26:23.200Z,98472.88
2023-05-10T04:31:27.879Z,98467.47
2023-05-10T04:36:33.707Z,98474.84
2023-05-10T04:41:39.729Z,98471.81
2023-05-10T04:46:43.850Z,98475.88
2023-05-10T04:51:49.451Z,98462.59
2023-05-10T04:56:53.480Z,98465.81
2023-05-10T05:01:57.858Z,98468.41
2023-05-10T05:07:03.284Z,98470.47
2023-05-10T05:12:07.728Z,98466.56
2023-05-10T05:17:11.683Z,98466.81
2023-05-10T05:22:17.774Z,98473.84
2023-05-10T05:27:25.095Z,98474.41
2023-05-10T05:32:29.229Z,98468.94
2023-05-10T05:37:34.823Z,98470.22
2023-05-10T05:42:39.691Z,98476.75
2023-05-10T05:47:43.970Z,98469.56
2023-05-10T05:52:49.304Z,98469.06
2023-05-10T05:57:53.604Z,98469.03
2023-05-10T06:02:58.315Z,98470.72
2023-05-10T06:08:04.041Z,98478.44
2023-05-10T06:13:08.413Z,98482.88
2023-05-10T06:18:12.462Z,98494.56
2023-05-10T06:23:18.046Z,98490.94
2023-05-10T06:28:22.183Z,98491.09
2023-05-10T06:33:26.429Z,98494.38
2023-05-10T06:38:31.862Z,98485.81
2023-05-10T06:43:36.027Z,98479.25
2023-05-10T06:48:40.161Z,98477.09
2023-05-10T06:53:45.412Z,98477.31
2023-05-10T06:58:49.473Z,98487.50
2023-05-10T07:03:53.864Z,98485.13
2023-05-10T07:08:59.878Z,98477.34
2023-05-10T07:14:03.898Z,98487.91
2023-05-10T07:19:08.107Z,98482.13
2023-05-10T07:24:14.092Z,98481.34
2023-05-10T07:29:17.982Z,98479.97
2023-05-10T07:34:22.105Z,98480.63
2023-05-10T07:39:28.801Z,98488.13
2023-05-10T07:44:32.867Z,98482.78
2023-05-10T07:49:36.859Z,98475.28
2023-05-10T07:54:42.421Z,98474.25
2023-05-10T07:59:47.081Z,98471.50
2023-05-10T08:04:51.771Z,98468.16
2023-05-10T08:09:57.547Z,98466.03
2023-05-10T08:15:02.052Z,98470.31
2023-05-10T08:20:07.424Z,98472.16
2023-05-10T08:25:12.746Z,98472.00
2023-05-10T08:30:17.053Z,98472.84
2023-05-10T08:35:21.174Z,98472.84
2023-05-10T08:40:28.209Z,98480.56
2023-05-10T08:45:34.209Z,98478.53
2023-05-10T08:50:39.273Z,98476.50
2023-05-10T08:55:44.964Z,98490.91
2023-05-10T09:00:51.862Z,98488.25
2023-05-10T09:05:56.826Z,98495.53
2023-05-10T09:11:02.477Z,98495.72
2023-05-10T09:16:17.499Z,98477.28
2023-05-10T09:21:24.929Z,98482.84
2023-05-10T09:26:30.727Z,98475.84
2023-05-10T09:31:52.006Z,98467.59
2023-05-10T09:37:01.897Z,98481.94
2023-05-10T09:42:09.601Z,98496.97
2023-05-10T09:47:19.034Z,98493.13
2023-05-10T09:52:23.268Z,98489.25
2023-05-10T09:57:28.542Z,98490.03
2023-05-10T10:02:33.229Z,98493.19
2023-05-10T10:07:37.945Z,98474.50
2023-05-10T10:12:43.982Z,98474.31
2023-05-10T10:17:48.737Z,98480.28
2023-05-10T10:22:52.672Z,98482.91
2023-05-10T10:28:10.064Z,98470.34
2023-05-10T10:33:32.708Z,98485.38
2023-05-10T10:38:58.913Z,98472.50
2023-05-10T10:44:26.439Z,98473.22
2023-05-10T10:49:30.814Z,98479.31
2023-05-10T10:54:34.974Z,98461.72
2023-05-10T10:59:43.878Z,98463.22
2023-05-10T11:04:47.974Z,98462.78
2023-05-10T11:09:52.697Z,98464.75
2023-05-10T11:15:00.878Z,98451.25
2023-05-10T11:20:10.787Z,98438.97
2023-05-10T11:25:14.926Z,98461.28
2023-05-10T11:30:21.318Z,98448.88
2023-05-10T11:35:25.897Z,98446.97
2023-05-10T11:40:29.954Z,98467.09
2023-05-10T11:45:35.801Z,98454.97
2023-05-10T11:50:39.994Z,98441.13
2023-05-10T11:55:44.039Z,98453.50
2023-05-10T12:00:49.405Z,98450.97
2023-05-10T12:05:53.961Z,98452.53
2023-05-10T12:11:07.206Z,98454.44
2023-05-10T12:16:20.673Z,98449.38
2023-05-10T12:21:24.632Z,98436.47
2023-05-10T12:26:29.988Z,98444.81
2023-05-10T12:31:35.188Z,98440.91
2023-05-10T12:36:40.755Z,98444.38
2023-05-10T12:41:44.819Z,98442.28
2023-05-10T12:46:50.263Z,98431.16
2023-05-10T12:51:54.243Z,98436.31
2023-05-10T12:56:58.410Z,98426.59
2023-05-10T13:02:03.903Z,98418.00
2023-05-10T13:07:07.926Z,98415.78
2023-05-10T13:12:12.204Z,98411.75
2023-05-10T13:17:17.828Z,98421.34
2023-05-10T13:22:32.510Z,98415.22
2023-05-10T13:27:37.038Z,98399.97
2023-05-10T13:32:42.590Z,98405.31
2023-05-10T13:37:46.435Z,98395.75
2023-05-10T13:42:50.366Z,98400.66
2023-05-10T13:47:56.204Z,98399.78
2023-05-10T13:53:00.711Z,98403.47
2023-05-10T13:58:05.151Z,98395.66
2023-05-10T14:03:12.573Z,98385.28
2023-05-10T14:08:16.997Z,98390.50
2023-05-10T14:13:21.634Z,98398.34
2023-05-10T14:18:27.369Z,98379.81
2023-05-10T14:23:31.538Z,98382.75
2023-05-10T14:28:35.827Z,98367.03
2023-05-10T14:33:41.352Z,98380.56
2023-05-10T14:38:45.330Z,98379.03
2023-05-10T14:43:49.305Z,98377.50
2023-05-10T14:48:54.412Z,98371.69
2023-05-10T14:53:58.717Z,98377.13
2023-05-10T14:59:05.200Z,98377.25
2023-05-10T15:04:11.177Z,98376.44
2023-05-10T15:09:16.621Z,98378.34
2023-05-10T15:14:21.284Z,98377.75
2023-05-10T15:19:26.744Z,98379.69
2023-05-10T15:24:30.957Z,98366.69
2023-05-10T15:29:35.259Z,98379.47
2023-05-10T15:34:40.407Z,98373.50
2023-05-10T15:39:44.516Z,98363.44
2023-05-10T15:44:51.311Z,98364.59
2023-05-10T15:49:56.791Z,98361.97
2023-05-10T15:55:00.965Z,98355.53
2023-05-10T16:00:06.066Z,98348.53
2023-05-10T16:05:17.581Z,98349.94
2023-05-10T16:10:21.977Z,98341.09
2023-05-10T16:15:26.591Z,98343.19
2023-05-10T16:20:31.865Z,98346.25
2023-05-10T16:25:36.336Z,98339.91
2023-05-10T16:30:40.310Z,98347.88
2023-05-10T16:35:45.866Z,98350.44
2023-05-10T16:40:50.226Z,98341.78
2023-05-10T16:45:54.536Z,98342.28
2023-05-10T16:51:00.388Z,98338.94
2023-05-10T16:56:04.913Z,98344.31
2023-05-10T17:01:09.580Z,98346.66
2023-05-10T17:06:14.815Z,98356.88
2023-05-10T17:11:19.950Z,98358.63
2023-05-10T17:16:24.462Z,98352.56
2023-05-10T17:21:30.236Z,98364.34
2023-05-10T17:26:34.621Z,98356.31
2023-05-10T17:31:38.546Z,98361.41
2023-05-10T17:36:43.995Z,98361.88
2023-05-10T17:41:47.786Z,98359.28
2023-05-10T17:46:51.866Z,98364.78
2023-05-10T17:51:57.471Z,98363.34
2023-05-10T17:57:02.082Z,98367.59
2023-05-10T18:02:06.425Z,98367.94
2023-05-10T18:07:11.870Z,98367.91
2023-05-10T18:12:15.655Z,98369.91
2023-05-10T18:17:20.421Z,98375.53
2023-05-10T18:22:26.747Z,98375.81
2023-05-10T18:27:30.556Z,98378.94
2023-05-10T18:32:34.866Z,98389.31
2023-05-10T18:37:40.157Z,98397.88
2023-05-10T18:42:46.460Z,98398.41
2023-05-10T18:47:50.342Z,98403.38
2023-05-10T18:52:56.607Z,98411.56
2023-05-10T18:58:00.606Z,98408.38
2023-05-10T19:03:05.200Z,98412.16
2023-05-10T19:08:10.926Z,98424.94
2023-05-10T19:13:15.232Z,98422.78
2023-05-10T19:18:21.093Z,98432.47
2023-05-10T19:23:30.038Z,98434.28
2023-05-10T19:28:35.927Z,98432.78
2023-05-10T19:33:40.770Z,98432.94
2023-05-10T19:38:46.737Z,98437.31
2023-05-10T19:43:52.105Z,98441.25
2023-05-10T19:48:57.201Z,98440.22
2023-05-10T19:54:02.807Z,98439.84
2023-05-10T19:59:07.789Z,98451.03
2023-05-10T20:04:11.995Z,98446.91
2023-05-10T20:09:17.679Z,98446.16
2023-05-10T20:14:21.701Z,98442.03
2023-05-10T20:19:28.435Z,98445.59
2023-05-10T20:24:33.980Z,98443.53
2023-05-10T20:29:38.189Z,98446.22
2023-05-10T20:34:42.508Z,98446.47
2023-05-10T20:39:50.287Z,98445.56
2023-05-10T20:44:54.624Z,98449.06
2023-05-10T20:49:59.142Z,98455.75
2023-05-10T20:55:05.085Z,98443.13
2023-05-10T21:00:10.672Z,98442.00
2023-05-10T21:05:14.806Z,98437.66
2023-05-10T21:10:20.886Z,98446.56
2023-05-10T21:15:25.975Z,98442.66
2023-05-10T21:20:30.853Z,98441.72
2023-05-10T21:25:36.505Z,98437.72
2023-05-10T21:30:40.587Z,98438.41
2023-05-10T21:35:44.575Z,98434.34
2023-05-10T21:40:50.011Z,98435.03
2023-05-10T21:45:54.295Z,98432.47
2023-05-10T21:50:58.742Z,98435.28
2023-05-10T21:56:04.266Z,98439.38
2023-05-10T22:01:08.622Z,98435.81
2023-05-10T22:06:13.482Z,98436.03
2023-05-10T22:11:18.944Z,98442.41
2023-05-10T22:16:23.052Z,98438.84
2023-05-10T22:21:27.679Z,98444.75
2023-05-10T22:26:32.969Z,98439.22
2023-05-10T22:31:37.674Z,98433.53
2023-05-10T22:36:41.712Z,98434.56
2023-05-10T22:41:47.103Z,98437.13
2023-05-10T22:46:51.139Z,98440.41
2023-05-10T22:51:55.672Z,98445.97
2023-05-10T22:57:01.410Z,98447.94
2023-05-10T23:02:05.447Z,98453.97
2023-05-10T23:07:09.367Z,98451.03
2023-05-10T23:12:15.115Z,98452.00
2023-05-10T23:17:19.249Z,98450.72
2023-05-10T23:22:23.799Z,98450.88
2023-05-10T23:27:31.318Z,98452.47
2023-05-10T23:32:36.040Z,98437.97
2023-05-10T23:37:41.073Z,98438.94
2023-05-10T23:42:46.627Z,98438.94
2023-05-10T23:47:50.707Z,98446.91
2023-05-10T23:52:54.888Z,98455.03
2023-05-10T23:58:00.527Z,98446.41
